sensor_id;sensor_type;location;lat;lon;timestamp;P1;durP1;ratioP1;P2;durP2;ratioP2
14013;SDS011;49110;52.584;13.408;2022-12-18T00:00:55;20.33;;;10.07;;
14013;SDS011;49110;52.584;13.408;2022-12-18T00:01:56;20.70;;;10.50;;
14013;SDS011;49110;52.584;13.408;2022-12-18T00:02:59;19.85;;;9.50;;
14013;SDS011;49110;52.584;13.408;2022-12-18T00:04:00;21.77;;;10.30;;
14013;SDS011;49110;52.584;13.408;2022-12-18T00:05:06;20.98;;;9.88;;
14013;SDS011;49110;52.584;13.408;2022-12-18T00:06:07;23.33;;;11.07;;
14013;SDS011;49110;52.584;13.408;2022-12-18T00:07:08;22.38;;;10.27;;
14013;SDS011;49110;52.584;13.408;2022-12-18T00:08:09;21.60;;;10.13;;
14013;SDS011;49110;52.584;13.408;2022-12-18T00:09:09;21.10;;;10.80;;
14013;SDS011;49110;52.584;13.408;2022-12-18T00:10:10;23.37;;;10.70;;
14013;SDS011;49110;52.584;13.408;2022-12-18T00:11:12;21.60;;;11.10;;
14013;SDS011;49110;52.584;13.408;2022-12-18T00:12:14;21.23;;;10.00;;
14013;SDS011;49110;52.584;13.408;2022-12-18T00:13:15;22.90;;;10.00;;
14013;SDS011;49110;52.584;13.408;2022-12-18T00:14:15;23.20;;;11.57;;
14013;SDS011;49110;52.584;13.408;2022-12-18T00:15:16;22.70;;;11.37;;
14013;SDS011;49110;52.584;13.408;2022-12-18T00:16:18;22.27;;;10.03;;
14013;SDS011;49110;52.584;13.408;2022-12-18T00:17:20;20.48;;;10.27;;
14013;SDS011;49110;52.584;13.408;2022-12-18T00:18:21;22.73;;;11.27;;
14013;SDS011;49110;52.584;13.408;2022-12-18T00:19:21;25.83;;;11.13;;
14013;SDS011;49110;52.584;13.408;2022-12-18T00:20:22;24.10;;;11.33;;
14013;SDS011;49110;52.584;13.408;2022-12-18T00:21:26;23.10;;;11.32;;
14013;SDS011;49110;52.584;13.408;2022-12-18T00:22:28;24.58;;;11.23;;
14013;SDS011;49110;52.584;13.408;2022-12-18T00:23:28;20.20;;;10.30;;
14013;SDS011;49110;52.584;13.408;2022-12-18T00:24:29;24.38;;;10.88;;
14013;SDS011;49110;52.584;13.408;2022-12-18T00:25:32;27.57;;;12.97;;
14013;SDS011;49110;52.584;13.408;2022-12-18T00:26:36;23.42;;;11.73;;
14013;SDS011;49110;52.584;13.408;2022-12-18T00:27:38;23.73;;;11.27;;
14013;SDS011;49110;52.584;13.408;2022-12-18T00:28:38;24.60;;;11.20;;
14013;SDS011;49110;52.584;13.408;2022-12-18T00:29:42;25.33;;;11.30;;
14013;SDS011;49110;52.584;13.408;2022-12-18T00:30:42;23.98;;;11.63;;
14013;SDS011;49110;52.584;13.408;2022-12-18T00:31:43;25.63;;;12.80;;
14013;SDS011;49110;52.584;13.408;2022-12-18T00:32:43;22.40;;;12.10;;
14013;SDS011;49110;52.584;13.408;2022-12-18T00:33:44;24.97;;;10.93;;
14013;SDS011;49110;52.584;13.408;2022-12-18T00:34:45;25.23;;;12.00;;
14013;SDS011;49110;52.584;13.408;2022-12-18T00:35:45;23.90;;;11.20;;
14013;SDS011;49110;52.584;13.408;2022-12-18T00:36:46;25.63;;;11.57;;
14013;SDS011;49110;52.584;13.408;2022-12-18T00:37:47;25.48;;;11.90;;
14013;SDS011;49110;52.584;13.408;2022-12-18T00:38:48;22.37;;;11.97;;
14013;SDS011;49110;52.584;13.408;2022-12-18T00:39:49;21.87;;;11.33;;
14013;SDS011;49110;52.584;13.408;2022-12-18T00:40:49;24.77;;;12.10;;
14013;SDS011;49110;52.584;13.408;2022-12-18T00:41:50;23.73;;;11.23;;
14013;SDS011;49110;52.584;13.408;2022-12-18T00:43:09;27.33;;;12.85;;
14013;SDS011;49110;52.584;13.408;2022-12-18T00:44:10;24.57;;;13.20;;
14013;SDS011;49110;52.584;13.408;2022-12-18T00:45:13;27.58;;;12.77;;
14013;SDS011;49110;52.584;13.408;2022-12-18T00:46:13;27.83;;;12.70;;
14013;SDS011;49110;52.584;13.408;2022-12-18T00:47:14;24.80;;;11.43;;
14013;SDS011;49110;52.584;13.408;2022-12-18T00:48:14;23.00;;;12.10;;
14013;SDS011;49110;52.584;13.408;2022-12-18T00:49:16;24.03;;;12.57;;
14013;SDS011;49110;52.584;13.408;2022-12-18T00:50:17;29.77;;;13.05;;
14013;SDS011;49110;52.584;13.408;2022-12-18T00:51:18;31.30;;;13.73;;
14013;SDS011;49110;52.584;13.408;2022-12-18T00:52:19;29.30;;;12.67;;
14013;SDS011;49110;52.584;13.408;2022-12-18T00:53:19;24.30;;;11.80;;
14013;SDS011;49110;52.584;13.408;2022-12-18T00:54:20;28.73;;;12.27;;
14013;SDS011;49110;52.584;13.408;2022-12-18T00:55:21;26.47;;;12.27;;
14013;SDS011;49110;52.584;13.408;2022-12-18T00:56:21;29.93;;;12.30;;
14013;SDS011;49110;52.584;13.408;2022-12-18T00:57:22;26.27;;;12.30;;
14013;SDS011;49110;52.584;13.408;2022-12-18T00:58:23;27.17;;;12.90;;
14013;SDS011;49110;52.584;13.408;2022-12-18T00:59:23;26.10;;;12.17;;
14013;SDS011;49110;52.584;13.408;2022-12-18T01:00:24;29.37;;;13.23;;
14013;SDS011;49110;52.584;13.408;2022-12-18T01:01:24;28.43;;;12.30;;
14013;SDS011;49110;52.584;13.408;2022-12-18T01:02:25;29.07;;;13.63;;
14013;SDS011;49110;52.584;13.408;2022-12-18T01:03:25;24.93;;;11.63;;
14013;SDS011;49110;52.584;13.408;2022-12-18T01:04:26;25.83;;;12.63;;
14013;SDS011;49110;52.584;13.408;2022-12-18T01:05:26;28.33;;;12.57;;
14013;SDS011;49110;52.584;13.408;2022-12-18T01:06:27;28.70;;;12.20;;
14013;SDS011;49110;52.584;13.408;2022-12-18T01:07:28;21.07;;;10.77;;
14013;SDS011;49110;52.584;13.408;2022-12-18T01:08:28;23.87;;;11.17;;
14013;SDS011;49110;52.584;13.408;2022-12-18T01:09:29;25.67;;;12.33;;
14013;SDS011;49110;52.584;13.408;2022-12-18T01:10:29;25.33;;;11.60;;
14013;SDS011;49110;52.584;13.408;2022-12-18T01:11:30;23.30;;;12.27;;
14013;SDS011;49110;52.584;13.408;2022-12-18T01:12:31;25.37;;;11.60;;
14013;SDS011;49110;52.584;13.408;2022-12-18T01:13:34;27.13;;;11.07;;
14013;SDS011;49110;52.584;13.408;2022-12-18T01:14:38;23.77;;;11.50;;
14013;SDS011;49110;52.584;13.408;2022-12-18T01:15:39;24.73;;;10.70;;
14013;SDS011;49110;52.584;13.408;2022-12-18T01:16:39;25.57;;;11.87;;
14013;SDS011;49110;52.584;13.408;2022-12-18T01:17:40;25.87;;;12.00;;
14013;SDS011;49110;52.584;13.408;2022-12-18T01:18:41;25.00;;;11.60;;
14013;SDS011;49110;52.584;13.408;2022-12-18T01:19:41;25.20;;;10.97;;
14013;SDS011;49110;52.584;13.408;2022-12-18T01:20:42;22.60;;;11.33;;
14013;SDS011;49110;52.584;13.408;2022-12-18T01:21:42;24.67;;;11.80;;
14013;SDS011;49110;52.584;13.408;2022-12-18T01:22:43;24.30;;;10.87;;
14013;SDS011;49110;52.584;13.408;2022-12-18T01:23:46;26.17;;;11.33;;
14013;SDS011;49110;52.584;13.408;2022-12-18T01:24:50;24.13;;;10.75;;
14013;SDS011;49110;52.584;13.408;2022-12-18T01:25:51;27.77;;;11.63;;
14013;SDS011;49110;52.584;13.408;2022-12-18T01:26:51;20.20;;;10.43;;
14013;SDS011;49110;52.584;13.408;2022-12-18T01:27:52;24.00;;;10.50;;
14013;SDS011;49110;52.584;13.408;2022-12-18T01:28:54;22.27;;;11.23;;
14013;SDS011;49110;52.584;13.408;2022-12-18T01:29:56;23.05;;;11.38;;
14013;SDS011;49110;52.584;13.408;2022-12-18T01:30:56;25.80;;;12.17;;
14013;SDS011;49110;52.584;13.408;2022-12-18T01:31:57;24.50;;;10.23;;
14013;SDS011;49110;52.584;13.408;2022-12-18T01:32:58;26.03;;;11.87;;
14013;SDS011;49110;52.584;13.408;2022-12-18T01:34:00;19.13;;;10.83;;
14013;SDS011;49110;52.584;13.408;2022-12-18T01:35:01;28.00;;;11.18;;
14013;SDS011;49110;52.584;13.408;2022-12-18T01:36:02;21.77;;;11.27;;
14013;SDS011;49110;52.584;13.408;2022-12-18T01:37:03;23.27;;;11.07;;
14013;SDS011;49110;52.584;13.408;2022-12-18T01:38:04;23.40;;;11.45;;
14013;SDS011;49110;52.584;13.408;2022-12-18T01:39:09;25.90;;;11.43;;
14013;SDS011;49110;52.584;13.408;2022-12-18T01:40:11;26.42;;;12.32;;
14013;SDS011;49110;52.584;13.408;2022-12-18T01:41:13;22.50;;;10.47;;
14013;SDS011;49110;52.584;13.408;2022-12-18T01:42:14;24.73;;;11.35;;
14013;SDS011;49110;52.584;13.408;2022-12-18T01:43:15;24.33;;;11.63;;
14013;SDS011;49110;52.584;13.408;2022-12-18T01:45:55;23.77;;;11.00;;
14013;SDS011;49110;52.584;13.408;2022-12-18T01:46:59;20.58;;;10.27;;
14013;SDS011;49110;52.584;13.408;2022-12-18T01:48:01;20.93;;;10.70;;
14013;SDS011;49110;52.584;13.408;2022-12-18T01:49:03;25.17;;;12.05;;
14013;SDS011;49110;52.584;13.408;2022-12-18T01:50:06;25.07;;;10.23;;
14013;SDS011;49110;52.584;13.408;2022-12-18T01:51:11;22.33;;;10.77;;
14013;SDS011;49110;52.584;13.408;2022-12-18T01:52:12;25.75;;;11.45;;
14013;SDS011;49110;52.584;13.408;2022-12-18T01:53:19;25.30;;;10.82;;
14013;SDS011;49110;52.584;13.408;2022-12-18T01:54:22;24.52;;;12.02;;
14013;SDS011;49110;52.584;13.408;2022-12-18T01:55:23;24.00;;;11.67;;
14013;SDS011;49110;52.584;13.408;2022-12-18T01:56:26;23.92;;;11.18;;
14013;SDS011;49110;52.584;13.408;2022-12-18T01:57:27;28.57;;;12.30;;
14013;SDS011;49110;52.584;13.408;2022-12-18T01:58:49;23.63;;;11.80;;
14013;SDS011;49110;52.584;13.408;2022-12-18T02:00:04;22.98;;;10.85;;
14013;SDS011;49110;52.584;13.408;2022-12-18T02:01:08;27.55;;;12.35;;
14013;SDS011;49110;52.584;13.408;2022-12-18T02:02:09;24.07;;;11.97;;
14013;SDS011;49110;52.584;13.408;2022-12-18T02:03:09;23.17;;;11.87;;
14013;SDS011;49110;52.584;13.408;2022-12-18T02:04:19;20.13;;;10.30;;
14013;SDS011;49110;52.584;13.408;2022-12-18T02:06:46;25.77;;;11.93;;
14013;SDS011;49110;52.584;13.408;2022-12-18T02:09:06;25.33;;;10.98;;
14013;SDS011;49110;52.584;13.408;2022-12-18T02:10:20;24.85;;;11.77;;
14013;SDS011;49110;52.584;13.408;2022-12-18T02:11:25;23.77;;;11.43;;
14013;SDS011;49110;52.584;13.408;2022-12-18T02:12:50;20.63;;;9.82;;
14013;SDS011;49110;52.584;13.408;2022-12-18T02:14:02;21.05;;;10.35;;
14013;SDS011;49110;52.584;13.408;2022-12-18T02:15:19;22.92;;;11.25;;
14013;SDS011;49110;52.584;13.408;2022-12-18T02:16:34;21.60;;;11.20;;
14013;SDS011;49110;52.584;13.408;2022-12-18T02:19:15;27.52;;;11.75;;
14013;SDS011;49110;52.584;13.408;2022-12-18T02:20:35;21.77;;;10.85;;
14013;SDS011;49110;52.584;13.408;2022-12-18T02:21:47;19.77;;;10.70;;
14013;SDS011;49110;52.584;13.408;2022-12-18T02:23:10;22.02;;;10.23;;
14013;SDS011;49110;52.584;13.408;2022-12-18T02:24:24;23.77;;;11.20;;
14013;SDS011;49110;52.584;13.408;2022-12-18T02:26:49;20.20;;;10.35;;
14013;SDS011;49110;52.584;13.408;2022-12-18T02:27:53;23.23;;;10.80;;
14013;SDS011;49110;52.584;13.408;2022-12-18T02:29:01;20.98;;;10.73;;
14013;SDS011;49110;52.584;13.408;2022-12-18T02:30:11;25.25;;;11.10;;
14013;SDS011;49110;52.584;13.408;2022-12-18T02:31:17;22.20;;;10.80;;
14013;SDS011;49110;52.584;13.408;2022-12-18T02:32:25;20.92;;;10.73;;
14013;SDS011;49110;52.584;13.408;2022-12-18T02:33:28;22.85;;;10.77;;
14013;SDS011;49110;52.584;13.408;2022-12-18T02:34:31;25.27;;;11.13;;
14013;SDS011;49110;52.584;13.408;2022-12-18T02:35:36;24.00;;;11.15;;
14013;SDS011;49110;52.584;13.408;2022-12-18T02:36:40;25.33;;;11.80;;
14013;SDS011;49110;52.584;13.408;2022-12-18T02:37:43;28.73;;;11.55;;
14013;SDS011;49110;52.584;13.408;2022-12-18T02:38:46;27.90;;;12.80;;
14013;SDS011;49110;52.584;13.408;2022-12-18T02:39:48;26.33;;;11.57;;
14013;SDS011;49110;52.584;13.408;2022-12-18T02:40:52;28.15;;;11.70;;
14013;SDS011;49110;52.584;13.408;2022-12-18T02:41:54;23.60;;;12.32;;
14013;SDS011;49110;52.584;13.408;2022-12-18T02:43:02;26.77;;;12.43;;
14013;SDS011;49110;52.584;13.408;2022-12-18T02:44:07;25.23;;;12.77;;
14013;SDS011;49110;52.584;13.408;2022-12-18T02:45:10;29.05;;;12.00;;
14013;SDS011;49110;52.584;13.408;2022-12-18T02:46:23;25.43;;;12.60;;
14013;SDS011;49110;52.584;13.408;2022-12-18T02:47:28;24.05;;;12.25;;
14013;SDS011;49110;52.584;13.408;2022-12-18T02:48:32;25.70;;;10.77;;
14013;SDS011;49110;52.584;13.408;2022-12-18T02:49:36;24.13;;;11.18;;
14013;SDS011;49110;52.584;13.408;2022-12-18T02:51:08;27.13;;;11.60;;
14013;SDS011;49110;52.584;13.408;2022-12-18T02:52:35;27.40;;;12.80;;
14013;SDS011;49110;52.584;13.408;2022-12-18T02:53:57;27.17;;;12.20;;
14013;SDS011;49110;52.584;13.408;2022-12-18T02:56:17;26.15;;;11.80;;
14013;SDS011;49110;52.584;13.408;2022-12-18T02:57:33;28.05;;;12.40;;
14013;SDS011;49110;52.584;13.408;2022-12-18T02:59:05;30.58;;;13.65;;
14013;SDS011;49110;52.584;13.408;2022-12-18T03:00:14;29.00;;;12.43;;
14013;SDS011;49110;52.584;13.408;2022-12-18T03:01:25;28.10;;;12.73;;
14013;SDS011;49110;52.584;13.408;2022-12-18T03:03:55;30.27;;;14.05;;
14013;SDS011;49110;52.584;13.408;2022-12-18T03:05:01;27.70;;;12.77;;
14013;SDS011;49110;52.584;13.408;2022-12-18T03:06:12;33.22;;;14.00;;
14013;SDS011;49110;52.584;13.408;2022-12-18T03:07:27;32.05;;;14.07;;
14013;SDS011;49110;52.584;13.408;2022-12-18T03:08:42;31.35;;;13.25;;
14013;SDS011;49110;52.584;13.408;2022-12-18T03:09:49;27.25;;;12.18;;
14013;SDS011;49110;52.584;13.408;2022-12-18T03:10:54;29.17;;;14.00;;
14013;SDS011;49110;52.584;13.408;2022-12-18T03:12:05;32.15;;;13.93;;
14013;SDS011;49110;52.584;13.408;2022-12-18T03:14:39;31.45;;;13.52;;
14013;SDS011;49110;52.584;13.408;2022-12-18T03:15:42;32.90;;;14.48;;
14013;SDS011;49110;52.584;13.408;2022-12-18T03:16:47;27.73;;;13.32;;
14013;SDS011;49110;52.584;13.408;2022-12-18T03:18:02;32.13;;;14.93;;
14013;SDS011;49110;52.584;13.408;2022-12-18T03:19:08;34.47;;;15.43;;
14013;SDS011;49110;52.584;13.408;2022-12-18T03:20:16;31.40;;;14.38;;
14013;SDS011;49110;52.584;13.408;2022-12-18T03:21:20;39.17;;;17.02;;
14013;SDS011;49110;52.584;13.408;2022-12-18T03:22:27;32.95;;;14.80;;
14013;SDS011;49110;52.584;13.408;2022-12-18T03:23:36;34.35;;;14.52;;
14013;SDS011;49110;52.584;13.408;2022-12-18T03:24:45;32.90;;;15.32;;
14013;SDS011;49110;52.584;13.408;2022-12-18T03:25:47;36.90;;;16.27;;
14013;SDS011;49110;52.584;13.408;2022-12-18T03:26:54;34.63;;;15.25;;
14013;SDS011;49110;52.584;13.408;2022-12-18T03:28:00;37.60;;;15.88;;
14013;SDS011;49110;52.584;13.408;2022-12-18T03:29:04;38.17;;;16.77;;
14013;SDS011;49110;52.584;13.408;2022-12-18T03:30:10;33.83;;;15.05;;
14013;SDS011;49110;52.584;13.408;2022-12-18T03:31:13;37.63;;;16.20;;
14013;SDS011;49110;52.584;13.408;2022-12-18T03:32:58;35.35;;;16.27;;
14013;SDS011;49110;52.584;13.408;2022-12-18T03:34:57;40.70;;;17.05;;
14013;SDS011;49110;52.584;13.408;2022-12-18T03:36:01;36.97;;;17.10;;
14013;SDS011;49110;52.584;13.408;2022-12-18T03:37:02;38.50;;;17.67;;
14013;SDS011;49110;52.584;13.408;2022-12-18T03:38:03;47.90;;;20.20;;
14013;SDS011;49110;52.584;13.408;2022-12-18T03:39:03;44.23;;;17.27;;
14013;SDS011;49110;52.584;13.408;2022-12-18T03:40:04;38.63;;;17.60;;
14013;SDS011;49110;52.584;13.408;2022-12-18T03:41:11;41.33;;;17.55;;
14013;SDS011;49110;52.584;13.408;2022-12-18T03:42:49;38.25;;;16.52;;
14013;SDS011;49110;52.584;13.408;2022-12-18T03:43:57;39.42;;;17.05;;
14013;SDS011;49110;52.584;13.408;2022-12-18T03:45:19;40.53;;;17.05;;
14013;SDS011;49110;52.584;13.408;2022-12-18T03:46:28;42.42;;;17.95;;
14013;SDS011;49110;52.584;13.408;2022-12-18T03:47:35;44.58;;;18.55;;
14013;SDS011;49110;52.584;13.408;2022-12-18T03:49:01;44.63;;;18.63;;
14013;SDS011;49110;52.584;13.408;2022-12-18T03:50:14;49.40;;;19.88;;
14013;SDS011;49110;52.584;13.408;2022-12-18T03:51:40;44.35;;;19.02;;
14013;SDS011;49110;52.584;13.408;2022-12-18T03:54:09;48.30;;;18.10;;
14013;SDS011;49110;52.584;13.408;2022-12-18T03:55:10;44.50;;;18.55;;
14013;SDS011;49110;52.584;13.408;2022-12-18T03:56:12;45.63;;;17.65;;
14013;SDS011;49110;52.584;13.408;2022-12-18T03:57:17;47.05;;;18.98;;
14013;SDS011;49110;52.584;13.408;2022-12-18T03:58:21;46.65;;;18.75;;
14013;SDS011;49110;52.584;13.408;2022-12-18T03:59:25;41.75;;;17.45;;
14013;SDS011;49110;52.584;13.408;2022-12-18T04:00:27;44.05;;;17.70;;
14013;SDS011;49110;52.584;13.408;2022-12-18T04:01:33;44.22;;;18.52;;
14013;SDS011;49110;52.584;13.408;2022-12-18T04:02:37;42.53;;;17.88;;
14013;SDS011;49110;52.584;13.408;2022-12-18T04:03:42;42.88;;;17.70;;
14013;SDS011;49110;52.584;13.408;2022-12-18T04:04:45;42.13;;;18.15;;
14013;SDS011;49110;52.584;13.408;2022-12-18T04:05:50;43.97;;;18.27;;
14013;SDS011;49110;52.584;13.408;2022-12-18T04:06:52;34.75;;;16.23;;
14013;SDS011;49110;52.584;13.408;2022-12-18T04:07:53;42.22;;;17.33;;
14013;SDS011;49110;52.584;13.408;2022-12-18T04:08:56;41.97;;;17.13;;
14013;SDS011;49110;52.584;13.408;2022-12-18T04:09:58;36.13;;;15.98;;
14013;SDS011;49110;52.584;13.408;2022-12-18T04:11:01;37.50;;;16.77;;
14013;SDS011;49110;52.584;13.408;2022-12-18T04:12:02;34.13;;;16.02;;
14013;SDS011;49110;52.584;13.408;2022-12-18T04:13:03;35.00;;;15.30;;
14013;SDS011;49110;52.584;13.408;2022-12-18T04:14:03;34.80;;;15.03;;
14013;SDS011;49110;52.584;13.408;2022-12-18T04:15:04;36.57;;;15.93;;
14013;SDS011;49110;52.584;13.408;2022-12-18T04:16:06;39.17;;;16.25;;
14013;SDS011;49110;52.584;13.408;2022-12-18T04:17:06;27.60;;;14.03;;
14013;SDS011;49110;52.584;13.408;2022-12-18T04:18:07;30.07;;;13.43;;
14013;SDS011;49110;52.584;13.408;2022-12-18T04:19:07;32.57;;;13.70;;
14013;SDS011;49110;52.584;13.408;2022-12-18T04:20:08;31.70;;;14.57;;
14013;SDS011;49110;52.584;13.408;2022-12-18T04:21:09;27.73;;;13.43;;
14013;SDS011;49110;52.584;13.408;2022-12-18T04:22:10;30.92;;;14.13;;
14013;SDS011;49110;52.584;13.408;2022-12-18T04:23:11;31.63;;;13.77;;
14013;SDS011;49110;52.584;13.408;2022-12-18T04:24:11;32.67;;;15.37;;
14013;SDS011;49110;52.584;13.408;2022-12-18T04:25:12;32.97;;;13.87;;
14013;SDS011;49110;52.584;13.408;2022-12-18T04:26:12;27.00;;;13.03;;
14013;SDS011;49110;52.584;13.408;2022-12-18T04:27:13;30.77;;;13.70;;
14013;SDS011;49110;52.584;13.408;2022-12-18T04:28:14;29.30;;;12.47;;
14013;SDS011;49110;52.584;13.408;2022-12-18T04:29:14;33.47;;;14.23;;
14013;SDS011;49110;52.584;13.408;2022-12-18T04:30:15;31.53;;;13.17;;
14013;SDS011;49110;52.584;13.408;2022-12-18T04:31:15;28.13;;;13.27;;
14013;SDS011;49110;52.584;13.408;2022-12-18T04:32:16;29.60;;;13.53;;
14013;SDS011;49110;52.584;13.408;2022-12-18T04:33:16;27.40;;;12.57;;
14013;SDS011;49110;52.584;13.408;2022-12-18T04:34:17;31.30;;;13.37;;
14013;SDS011;49110;52.584;13.408;2022-12-18T04:35:17;27.37;;;12.57;;
14013;SDS011;49110;52.584;13.408;2022-12-18T04:36:18;27.53;;;12.90;;
14013;SDS011;49110;52.584;13.408;2022-12-18T04:37:18;33.40;;;12.60;;
14013;SDS011;49110;52.584;13.408;2022-12-18T04:38:18;27.43;;;12.83;;
14013;SDS011;49110;52.584;13.408;2022-12-18T04:39:19;30.70;;;12.80;;
14013;SDS011;49110;52.584;13.408;2022-12-18T04:40:20;28.83;;;13.00;;
14013;SDS011;49110;52.584;13.408;2022-12-18T04:41:20;26.57;;;12.07;;
14013;SDS011;49110;52.584;13.408;2022-12-18T04:42:21;31.50;;;12.23;;
14013;SDS011;49110;52.584;13.408;2022-12-18T04:43:21;27.63;;;12.90;;
14013;SDS011;49110;52.584;13.408;2022-12-18T04:44:22;30.43;;;13.40;;
14013;SDS011;49110;52.584;13.408;2022-12-18T04:45:22;31.27;;;13.20;;
14013;SDS011;49110;52.584;13.408;2022-12-18T04:46:23;24.43;;;12.33;;
14013;SDS011;49110;52.584;13.408;2022-12-18T04:47:23;27.47;;;12.80;;
14013;SDS011;49110;52.584;13.408;2022-12-18T04:48:24;27.27;;;11.90;;
14013;SDS011;49110;52.584;13.408;2022-12-18T04:49:24;28.17;;;13.20;;
14013;SDS011;49110;52.584;13.408;2022-12-18T04:50:25;29.67;;;12.93;;
14013;SDS011;49110;52.584;13.408;2022-12-18T04:51:25;27.37;;;12.33;;
14013;SDS011;49110;52.584;13.408;2022-12-18T04:52:26;29.40;;;12.30;;
14013;SDS011;49110;52.584;13.408;2022-12-18T04:53:26;26.77;;;11.90;;
14013;SDS011;49110;52.584;13.408;2022-12-18T04:54:27;29.60;;;13.27;;
14013;SDS011;49110;52.584;13.408;2022-12-18T04:55:27;26.73;;;12.17;;
14013;SDS011;49110;52.584;13.408;2022-12-18T04:56:30;24.53;;;12.20;;
14013;SDS011;49110;52.584;13.408;2022-12-18T04:57:31;31.30;;;12.38;;
14013;SDS011;49110;52.584;13.408;2022-12-18T04:58:31;27.07;;;12.67;;
14013;SDS011;49110;52.584;13.408;2022-12-18T04:59:32;28.10;;;12.77;;
14013;SDS011;49110;52.584;13.408;2022-12-18T05:00:32;31.17;;;12.83;;
14013;SDS011;49110;52.584;13.408;2022-12-18T05:01:33;27.00;;;12.87;;
14013;SDS011;49110;52.584;13.408;2022-12-18T05:02:33;26.87;;;13.30;;
14013;SDS011;49110;52.584;13.408;2022-12-18T05:03:34;31.17;;;13.37;;
14013;SDS011;49110;52.584;13.408;2022-12-18T05:04:36;27.60;;;12.68;;
14013;SDS011;49110;52.584;13.408;2022-12-18T05:05:36;26.57;;;11.87;;
14013;SDS011;49110;52.584;13.408;2022-12-18T05:06:37;25.13;;;12.53;;
14013;SDS011;49110;52.584;13.408;2022-12-18T05:07:37;29.57;;;13.17;;
14013;SDS011;49110;52.584;13.408;2022-12-18T05:08:38;25.57;;;12.00;;
14013;SDS011;49110;52.584;13.408;2022-12-18T05:09:38;29.10;;;12.40;;
14013;SDS011;49110;52.584;13.408;2022-12-18T05:10:39;26.03;;;11.60;;
14013;SDS011;49110;52.584;13.408;2022-12-18T05:11:39;26.33;;;12.27;;
14013;SDS011;49110;52.584;13.408;2022-12-18T05:12:40;26.63;;;12.53;;
14013;SDS011;49110;52.584;13.408;2022-12-18T05:13:57;26.88;;;11.98;;
14013;SDS011;49110;52.584;13.408;2022-12-18T05:14:58;26.07;;;12.47;;
14013;SDS011;49110;52.584;13.408;2022-12-18T05:15:59;27.13;;;12.37;;
14013;SDS011;49110;52.584;13.408;2022-12-18T05:17:00;27.65;;;12.50;;
14013;SDS011;49110;52.584;13.408;2022-12-18T05:18:00;28.27;;;12.63;;
14013;SDS011;49110;52.584;13.408;2022-12-18T05:19:01;26.88;;;13.32;;
14013;SDS011;49110;52.584;13.408;2022-12-18T05:20:02;27.57;;;12.50;;
14013;SDS011;49110;52.584;13.408;2022-12-18T05:21:03;28.13;;;12.40;;
14013;SDS011;49110;52.584;13.408;2022-12-18T05:22:07;25.33;;;11.80;;
14013;SDS011;49110;52.584;13.408;2022-12-18T05:23:08;25.33;;;11.70;;
14013;SDS011;49110;52.584;13.408;2022-12-18T05:24:08;25.30;;;12.47;;
14013;SDS011;49110;52.584;13.408;2022-12-18T05:25:09;31.57;;;13.50;;
14013;SDS011;49110;52.584;13.408;2022-12-18T05:26:09;28.47;;;13.60;;
14013;SDS011;49110;52.584;13.408;2022-12-18T05:27:16;23.73;;;12.13;;
14013;SDS011;49110;52.584;13.408;2022-12-18T05:28:16;27.70;;;11.70;;
14013;SDS011;49110;52.584;13.408;2022-12-18T05:29:16;29.37;;;13.07;;
14013;SDS011;49110;52.584;13.408;2022-12-18T05:30:17;27.27;;;11.83;;
14013;SDS011;49110;52.584;13.408;2022-12-18T05:31:17;26.00;;;12.57;;
14013;SDS011;49110;52.584;13.408;2022-12-18T05:32:18;24.20;;;11.83;;
14013;SDS011;49110;52.584;13.408;2022-12-18T05:33:19;28.10;;;12.27;;
14013;SDS011;49110;52.584;13.408;2022-12-18T05:34:20;23.05;;;11.20;;
14013;SDS011;49110;52.584;13.408;2022-12-18T05:35:20;27.40;;;11.53;;
14013;SDS011;49110;52.584;13.408;2022-12-18T05:36:21;23.07;;;11.20;;
14013;SDS011;49110;52.584;13.408;2022-12-18T05:37:21;23.50;;;11.70;;
14013;SDS011;49110;52.584;13.408;2022-12-18T05:38:23;29.90;;;12.83;;
14013;SDS011;49110;52.584;13.408;2022-12-18T05:39:24;26.88;;;11.88;;
14013;SDS011;49110;52.584;13.408;2022-12-18T05:40:25;26.57;;;12.80;;
14013;SDS011;49110;52.584;13.408;2022-12-18T05:41:25;27.37;;;12.63;;
14013;SDS011;49110;52.584;13.408;2022-12-18T05:42:26;25.52;;;12.73;;
14013;SDS011;49110;52.584;13.408;2022-12-18T05:43:27;24.27;;;10.90;;
14013;SDS011;49110;52.584;13.408;2022-12-18T05:44:28;25.70;;;11.48;;
14013;SDS011;49110;52.584;13.408;2022-12-18T05:45:29;26.27;;;12.10;;
14013;SDS011;49110;52.584;13.408;2022-12-18T05:46:29;27.83;;;12.40;;
14013;SDS011;49110;52.584;13.408;2022-12-18T05:47:30;24.37;;;12.10;;
14013;SDS011;49110;52.584;13.408;2022-12-18T05:48:30;24.73;;;11.77;;
14013;SDS011;49110;52.584;13.408;2022-12-18T05:49:30;25.03;;;12.03;;
14013;SDS011;49110;52.584;13.408;2022-12-18T05:50:33;28.27;;;12.13;;
14013;SDS011;49110;52.584;13.408;2022-12-18T05:51:37;27.30;;;11.48;;
14013;SDS011;49110;52.584;13.408;2022-12-18T05:52:38;31.43;;;12.43;;
14013;SDS011;49110;52.584;13.408;2022-12-18T05:53:38;27.90;;;11.97;;
14013;SDS011;49110;52.584;13.408;2022-12-18T05:54:39;25.47;;;12.53;;
14013;SDS011;49110;52.584;13.408;2022-12-18T05:55:40;28.30;;;12.63;;
14013;SDS011;49110;52.584;13.408;2022-12-18T05:56:41;26.67;;;11.48;;
14013;SDS011;49110;52.584;13.408;2022-12-18T05:57:42;28.97;;;13.90;;
14013;SDS011;49110;52.584;13.408;2022-12-18T05:58:42;25.07;;;12.03;;
14013;SDS011;49110;52.584;13.408;2022-12-18T05:59:43;25.60;;;12.47;;
14013;SDS011;49110;52.584;13.408;2022-12-18T06:00:45;27.60;;;12.80;;
14013;SDS011;49110;52.584;13.408;2022-12-18T06:01:46;23.63;;;11.27;;
14013;SDS011;49110;52.584;13.408;2022-12-18T06:02:47;28.03;;;12.40;;
14013;SDS011;49110;52.584;13.408;2022-12-18T06:03:47;29.77;;;11.70;;
14013;SDS011;49110;52.584;13.408;2022-12-18T06:04:48;27.83;;;10.80;;
14013;SDS011;49110;52.584;13.408;2022-12-18T06:05:48;28.90;;;13.47;;
14013;SDS011;49110;52.584;13.408;2022-12-18T06:06:49;21.93;;;10.63;;
14013;SDS011;49110;52.584;13.408;2022-12-18T06:07:49;20.70;;;10.37;;
14013;SDS011;49110;52.584;13.408;2022-12-18T06:08:50;25.50;;;11.13;;
14013;SDS011;49110;52.584;13.408;2022-12-18T06:09:51;25.27;;;11.82;;
14013;SDS011;49110;52.584;13.408;2022-12-18T06:10:52;28.10;;;11.73;;
14013;SDS011;49110;52.584;13.408;2022-12-18T06:11:52;25.00;;;10.50;;
14013;SDS011;49110;52.584;13.408;2022-12-18T06:12:53;27.67;;;11.80;;
14013;SDS011;49110;52.584;13.408;2022-12-18T06:13:54;23.30;;;12.10;;
14013;SDS011;49110;52.584;13.408;2022-12-18T06:14:56;21.58;;;10.25;;
14013;SDS011;49110;52.584;13.408;2022-12-18T06:15:56;25.47;;;11.67;;
14013;SDS011;49110;52.584;13.408;2022-12-18T06:16:56;28.50;;;11.77;;
14013;SDS011;49110;52.584;13.408;2022-12-18T06:30:51;28.77;;;12.88;;
14013;SDS011;49110;52.584;13.408;2022-12-18T06:31:52;26.40;;;13.00;;
14013;SDS011;49110;52.584;13.408;2022-12-18T06:32:53;27.20;;;12.97;;